Time;durP1;ratioP1;P1;durP2;ratioP2;P2;SDS_P1;SDS_P2;PMS_P1;PMS_P2;Temp;Humidity;BMP_temperature;BMP_pressure;BME280_temperature;BME280_humidity;BME280_pressure;Samples;Min_cycle;Max_cycle;Signal;HPM_P1;HPM_P2
2022/04/16 00:00:11;;;;;;;1.67;1.08;;;;;;;;;;6206310;23;20004;-55
2022/04/16 00:02:38;;;;;;;1.75;1.30;;;;;;;;;;6205867;23;20000;-54
2022/04/16 00:05:04;;;;;;;1.23;1.00;;;;;;;;;;6205816;23;20020;-55
2022/04/16 00:07:30;;;;;;;1.23;1.13;;;;;;;;;;6206513;23;20012;-54
2022/04/16 00:09:57;;;;;;;1.55;1.45;;;;;;;;;;6205839;23;20008;-55
2022/04/16 00:12:23;;;;;;;1.13;1.00;;;;;;;;;;6205818;23;20070;-54
2022/04/16 00:14:49;;;;;;;1.20;1.10;;;;;;;;;;6206237;23;20004;-54
2022/04/16 00:17:17;;;;;;;1.10;1.00;;;;;;;;;;6205422;23;20000;-54
2022/04/16 00:19:43;;;;;;;1.15;1.05;;;;;;;;;;6206252;23;20393;-54
2022/04/16 00:22:12;;;;;;;1.52;1.20;;;;;;;;;;6205843;23;20462;-54
2022/04/16 00:24:40;;;;;;;1.13;0.90;;;;;;;;;;6206312;23;19997;-54
2022/04/16 00:27:07;;;;;;;1.00;0.90;;;;;;;;;;6206122;23;20008;-53
2022/04/16 00:29:34;;;;;;;1.80;1.27;;;;;;;;;;6206509;23;20016;-55
2022/04/16 00:32:00;;;;;;;0.98;0.90;;;;;;;;;;6206489;23;20075;-53
2022/04/16 00:34:26;;;;;;;1.48;1.00;;;;;;;;;;6206162;23;20005;-55
2022/04/16 00:36:52;;;;;;;2.00;1.00;;;;;;;;;;6205708;23;20005;-55
2022/04/16 00:39:18;;;;;;;1.35;1.15;;;;;;;;;;6205678;23;20013;-54
2022/04/16 00:41:45;;;;;;;1.42;1.15;;;;;;;;;;6205797;23;20417;-53
2022/04/16 00:44:13;;;;;;;1.83;1.40;;;;;;;;;;6205614;23;20098;-54
2022/04/16 00:46:39;;;;;;;1.48;1.27;;;;;;;;;;6205770;23;20001;-54
2022/04/16 00:49:05;;;;;;;1.25;1.15;;;;;;;;;;6205840;23;20009;-53
2022/04/16 00:51:33;;;;;;;2.05;1.35;;;;;;;;;;6206398;23;20019;-55
2022/04/16 00:53:59;;;;;;;1.30;1.15;;;;;;;;;;6206450;23;20001;-54
2022/04/16 00:56:25;;;;;;;1.92;0.90;;;;;;;;;;6205617;23;20032;-55
2022/04/16 00:58:51;;;;;;;1.02;0.93;;;;;;;;;;6206057;23;20253;-54
2022/04/16 01:01:17;;;;;;;1.60;1.40;;;;;;;;;;6205584;23;20000;-54
2022/04/16 01:03:45;;;;;;;3.85;1.20;;;;;;;;;;6205390;23;20083;-55
2022/04/16 01:06:15;;;;;;;1.35;1.00;;;;;;;;;;6205100;23;20071;-55
2022/04/16 01:08:44;;;;;;;1.02;1.00;;;;;;;;;;6206007;23;20017;-55
2022/04/16 01:11:11;;;;;;;1.00;0.95;;;;;;;;;;6205313;23;20017;-55
2022/04/16 01:13:37;;;;;;;1.67;1.20;;;;;;;;;;6205635;23;20096;-54
2022/04/16 01:16:05;;;;;;;1.45;1.20;;;;;;;;;;6205329;23;20062;-54
2022/04/16 01:18:31;;;;;;;1.30;1.20;;;;;;;;;;6205933;23;20012;-54
2022/04/16 01:20:57;;;;;;;1.30;1.02;;;;;;;;;;6205425;23;20080;-55
2022/04/16 01:23:24;;;;;;;2.10;1.40;;;;;;;;;;6205285;23;20004;-55
2022/04/16 01:25:50;;;;;;;1.42;1.10;;;;;;;;;;6205509;23;20009;-54
2022/04/16 01:28:16;;;;;;;1.40;1.20;;;;;;;;;;6205372;23;20005;-54
2022/04/16 01:30:43;;;;;;;1.10;1.00;;;;;;;;;;6205345;23;20031;-54
2022/04/16 01:33:10;;;;;;;1.30;1.17;;;;;;;;;;6205432;23;20011;-55
2022/04/16 01:35:37;;;;;;;1.73;1.13;;;;;;;;;;6205347;23;20005;-53
2022/04/16 01:38:08;;;;;;;0.93;0.90;;;;;;;;;;6205416;23;20015;-54
2022/04/16 01:40:34;;;;;;;1.52;1.10;;;;;;;;;;6205566;23;20350;-55
2022/04/16 01:43:00;;;;;;;1.45;1.35;;;;;;;;;;6206109;23;20000;-54
2022/04/16 01:45:27;;;;;;;1.20;0.98;;;;;;;;;;6205142;23;20004;-54
2022/04/16 01:47:54;;;;;;;1.50;1.23;;;;;;;;;;6205342;23;20012;-54
2022/04/16 01:50:20;;;;;;;1.02;1.00;;;;;;;;;;6205446;23;20012;-55
2022/04/16 01:52:47;;;;;;;1.88;1.23;;;;;;;;;;6205410;23;20004;-54
2022/04/16 01:55:13;;;;;;;2.03;1.25;;;;;;;;;;6204825;23;20015;-54
2022/04/16 01:57:39;;;;;;;1.30;1.20;;;;;;;;;;6205473;23;20024;-55
2022/04/16 02:00:11;;;;;;;1.38;1.27;;;;;;;;;;6205390;23;20004;-55
2022/04/16 02:02:37;;;;;;;1.33;1.23;;;;;;;;;;6205219;23;20025;-54
2022/04/16 02:05:04;;;;;;;1.30;1.20;;;;;;;;;;6179099;23;20016;-54
2022/04/16 02:07:30;;;;;;;1.48;1.27;;;;;;;;;;6205553;23;20012;-54
2022/04/16 02:09:56;;;;;;;1.30;1.20;;;;;;;;;;6205303;23;20008;-54
2022/04/16 02:12:22;;;;;;;1.50;1.20;;;;;;;;;;6204932;23;20001;-53
2022/04/16 02:14:48;;;;;;;1.48;1.20;;;;;;;;;;6205562;23;20007;-54
2022/04/16 02:17:15;;;;;;;1.15;1.05;;;;;;;;;;6204476;23;20001;-54
2022/04/16 02:19:42;;;;;;;1.30;1.17;;;;;;;;;;6204975;23;20011;-54
2022/04/16 02:22:08;;;;;;;1.15;1.00;;;;;;;;;;6205267;23;20005;-55
2022/04/16 02:24:34;;;;;;;1.88;1.08;;;;;;;;;;6205204;23;20349;-53
2022/04/16 02:27:00;;;;;;;1.10;1.00;;;;;;;;;;6205772;23;20381;-54
2022/04/16 02:29:27;;;;;;;1.13;1.02;;;;;;;;;;6204884;23;20004;-51
2022/04/16 02:31:53;;;;;;;1.05;1.00;;;;;;;;;;6205140;23;20068;-54
2022/04/16 02:34:20;;;;;;;1.30;1.20;;;;;;;;;;6204985;23;20012;-53
2022/04/16 02:36:47;;;;;;;1.23;1.00;;;;;;;;;;6204921;23;20358;-53
2022/04/16 02:39:15;;;;;;;1.02;0.98;;;;;;;;;;6205080;23;20014;-53
2022/04/16 02:41:41;;;;;;;1.65;1.20;;;;;;;;;;6205026;23;20009;-55
2022/04/16 02:47:04;;;;;;;2.45;1.00;;;;;;;;;;6205236;23;20028;-54
2022/04/16 02:47:05;;;;;;;1.33;1.13;;;;;;;;;;6204378;23;20091;-54
2022/04/16 02:49:37;;;;;;;1.52;1.20;;;;;;;;;;6205546;23;20032;-54
2022/04/16 02:52:03;;;;;;;1.58;1.20;;;;;;;;;;6206036;23;20015;-54
2022/04/16 02:54:29;;;;;;;1.20;1.10;;;;;;;;;;6205554;23;20020;-53
2022/04/16 02:56:58;;;;;;;1.67;1.40;;;;;;;;;;6204793;23;20009;-54
2022/04/16 02:59:25;;;;;;;1.88;1.20;;;;;;;;;;6204749;23;20040;-53
2022/04/16 03:01:51;;;;;;;1.33;1.10;;;;;;;;;;6204948;23;20060;-54
2022/04/16 03:04:17;;;;;;;1.40;1.10;;;;;;;;;;6204646;23;20015;-54
2022/04/16 03:06:44;;;;;;;1.20;1.10;;;;;;;;;;6205125;23;20008;-55
2022/04/16 03:09:11;;;;;;;1.20;1.10;;;;;;;;;;6204915;23;20008;-53
2022/04/16 03:11:38;;;;;;;1.63;1.23;;;;;;;;;;6204985;23;20023;-54
2022/04/16 03:17:31;;;;;;;2.42;1.38;;;;;;;;;;6205170;23;20036;-54
2022/04/16 03:19:36;;;;;;;2.42;1.25;;;;;;;;;;6204728;23;20099;-53
2022/04/16 03:22:03;;;;;;;1.92;1.67;;;;;;;;;;6206996;23;20047;-54
2022/04/16 03:24:30;;;;;;;1.25;1.15;;;;;;;;;;6207594;23;20100;-54
2022/04/16 03:26:56;;;;;;;1.33;1.23;;;;;;;;;;6206600;23;20441;-52
2022/04/16 03:29:22;;;;;;;1.90;1.10;;;;;;;;;;6206438;23;20343;-53
2022/04/16 03:31:48;;;;;;;1.15;1.00;;;;;;;;;;6206336;23;20088;-54
2022/04/16 03:34:14;;;;;;;2.13;1.25;;;;;;;;;;6206675;23;20009;-52
2022/04/16 03:36:40;;;;;;;0.95;0.90;;;;;;;;;;6206938;23;20157;-53
2022/04/16 03:39:06;;;;;;;1.60;1.10;;;;;;;;;;6206330;23;20461;-54
2022/04/16 03:41:32;;;;;;;1.65;1.30;;;;;;;;;;6207362;23;20001;-54
2022/04/16 03:43:58;;;;;;;1.63;1.33;;;;;;;;;;6207389;23;20015;-54
2022/04/16 03:46:24;;;;;;;2.22;1.42;;;;;;;;;;6205869;23;20011;-52
2022/04/16 03:48:50;;;;;;;1.60;1.48;;;;;;;;;;6206533;23;20012;-54
2022/04/16 03:51:16;;;;;;;1.90;1.58;;;;;;;;;;6206483;23;20001;-54
2022/04/16 03:53:43;;;;;;;2.17;1.67;;;;;;;;;;6206493;23;20004;-54
2022/04/16 04:01:45;;;;;;;2.13;1.45;;;;;;;;;;6149568;23;20009;-53
2022/04/16 04:04:11;;;;;;;1.85;1.40;;;;;;;;;;6179043;23;20361;-54
2022/04/16 04:06:38;;;;;;;1.70;1.33;;;;;;;;;;6206172;23;20072;-53
2022/04/16 04:09:06;;;;;;;1.42;1.20;;;;;;;;;;6205777;23;20083;-53
2022/04/16 04:11:32;;;;;;;1.45;1.30;;;;;;;;;;6207108;23;20001;-53
2022/04/16 04:13:59;;;;;;;1.83;1.40;;;;;;;;;;6207192;23;20012;-54
2022/04/16 04:16:25;;;;;;;1.70;1.52;;;;;;;;;;6179311;23;20015;-54
2022/04/16 04:18:52;;;;;;;2.13;1.33;;;;;;;;;;6205815;23;20005;-54
2022/04/16 04:21:18;;;;;;;1.25;1.10;;;;;;;;;;6206180;23;20307;-53
2022/04/16 04:23:44;;;;;;;1.70;1.30;;;;;;;;;;6206097;23;20012;-54
2022/04/16 04:26:10;;;;;;;1.77;1.40;;;;;;;;;;6205534;23;20191;-53
2022/04/16 04:28:37;;;;;;;1.52;1.40;;;;;;;;;;6206339;23;20007;-54
2022/04/16 04:31:03;;;;;;;1.10;1.00;;;;;;;;;;6178561;23;20414;-55
2022/04/16 04:33:33;;;;;;;1.95;1.33;;;;;;;;;;6206552;23;20004;-54
2022/04/16 04:35:59;;;;;;;1.38;1.20;;;;;;;;;;6206847;23;20009;-54
2022/04/16 04:38:26;;;;;;;2.20;1.60;;;;;;;;;;6179015;23;20008;-54
2022/04/16 04:40:52;;;;;;;1.80;1.63;;;;;;;;;;6206013;23;20032;-53
2022/04/16 04:43:18;;;;;;;1.92;1.65;;;;;;;;;;6205547;23;20024;-54
2022/04/16 04:45:46;;;;;;;3.35;1.60;;;;;;;;;;6205773;23;20364;-54
2022/04/16 04:48:12;;;;;;;2.47;1.73;;;;;;;;;;6205546;23;20004;-53
2022/04/16 04:50:39;;;;;;;1.90;1.35;;;;;;;;;;6206026;23;20356;-54
2022/04/16 04:53:05;;;;;;;1.52;1.40;;;;;;;;;;6205522;23;20086;-53
2022/04/16 04:55:32;;;;;;;1.80;1.33;;;;;;;;;;6206542;23;20044;-53
2022/04/16 04:57:58;;;;;;;1.35;1.25;;;;;;;;;;6206343;23;20486;-54
2022/04/16 05:00:24;;;;;;;1.65;1.55;;;;;;;;;;6205903;23;20000;-54
2022/04/16 05:02:50;;;;;;;1.85;1.65;;;;;;;;;;6206116;23;20005;-54
2022/04/16 05:05:16;;;;;;;2.08;1.55;;;;;;;;;;6205216;23;20477;-54
2022/04/16 05:07:42;;;;;;;2.38;1.80;;;;;;;;;;6205653;23;20001;-54
2022/04/16 05:10:09;;;;;;;1.85;1.60;;;;;;;;;;6205605;23;20553;-54
2022/04/16 05:12:35;;;;;;;1.90;1.73;;;;;;;;;;6205767;23;20354;-53
2022/04/16 05:15:01;;;;;;;2.40;1.77;;;;;;;;;;6206061;23;20005;-52
2022/04/16 05:17:27;;;;;;;1.92;1.50;;;;;;;;;;6205501;23;20009;-54
2022/04/16 05:19:53;;;;;;;1.63;1.30;;;;;;;;;;6205382;23;20001;-52
2022/04/16 05:22:19;;;;;;;1.85;1.58;;;;;;;;;;6205548;23;20433;-53
2022/04/16 05:24:46;;;;;;;2.58;1.60;;;;;;;;;;6205627;23;20004;-54
2022/04/16 05:27:13;;;;;;;1.50;1.40;;;;;;;;;;6205113;23;20004;-53
2022/04/16 05:32:32;;;;;;;1.73;1.50;;;;;;;;;;6205098;23;20556;-54
2022/04/16 05:34:58;;;;;;;1.30;1.20;;;;;;;;;;6206298;23;20005;-52
2022/04/16 05:37:25;;;;;;;1.48;1.38;;;;;;;;;;6205011;23;20012;-54
2022/04/16 05:39:51;;;;;;;1.42;1.33;;;;;;;;;;6205350;23;20043;-53
2022/04/16 05:42:18;;;;;;;1.73;1.33;;;;;;;;;;6205046;23;19997;-54
2022/04/16 05:44:44;;;;;;;1.48;1.30;;;;;;;;;;6205182;23;20504;-54
2022/04/16 05:47:10;;;;;;;1.88;1.42;;;;;;;;;;6205151;23;20001;-55
2022/04/16 05:49:37;;;;;;;2.28;1.50;;;;;;;;;;6205507;23;20070;-54
2022/04/16 05:52:03;;;;;;;1.70;1.60;;;;;;;;;;6205756;23;20008;-54
2022/04/16 05:54:29;;;;;;;1.38;1.27;;;;;;;;;;6206237;23;20012;-54
2022/04/16 05:56:55;;;;;;;1.67;1.58;;;;;;;;;;6204813;23;20059;-53
2022/04/16 05:59:22;;;;;;;1.88;1.65;;;;;;;;;;6204911;23;20005;-54
2022/04/16 06:01:49;;;;;;;1.38;1.27;;;;;;;;;;6205327;23;20430;-53
2022/04/16 06:04:15;;;;;;;1.30;1.20;;;;;;;;;;6204927;23;20386;-53
2022/04/16 06:06:41;;;;;;;1.40;1.30;;;;;;;;;;6205053;23;20011;-54
2022/04/16 06:09:07;;;;;;;1.60;1.25;;;;;;;;;;6205098;23;20449;-55
2022/04/16 06:11:35;;;;;;;1.98;1.52;;;;;;;;;;6205229;23;20000;-55
2022/04/16 06:14:00;;;;;;;3.95;1.40;;;;;;;;;;6205561;23;20023;-54
2022/04/16 06:16:27;;;;;;;1.67;1.58;;;;;;;;;;6205117;23;20442;-54
2022/04/16 06:18:53;;;;;;;1.95;1.48;;;;;;;;;;6205017;23;20393;-55
2022/04/16 06:21:20;;;;;;;1.50;1.40;;;;;;;;;;6205078;23;20544;-54
2022/04/16 06:23:47;;;;;;;1.75;1.40;;;;;;;;;;6205222;23;20063;-55
2022/04/16 06:26:13;;;;;;;2.20;1.63;;;;;;;;;;6205109;23;20449;-55
2022/04/16 06:28:39;;;;;;;1.70;1.60;;;;;;;;;;6205484;23;20005;-52
2022/04/16 06:31:05;;;;;;;2.08;1.70;;;;;;;;;;6205047;23;20012;-55
2022/04/16 06:33:32;;;;;;;1.77;1.63;;;;;;;;;;6205853;23;20009;-54
2022/04/16 06:35:58;;;;;;;1.42;1.33;;;;;;;;;;6205683;23;20032;-55
2022/04/16 06:38:24;;;;;;;1.83;1.30;;;;;;;;;;6205012;23;20457;-54
2022/04/16 06:40:51;;;;;;;2.15;1.42;;;;;;;;;;6204971;23;20016;-54
2022/04/16 06:43:18;;;;;;;1.77;1.63;;;;;;;;;;6204621;23;20005;-55
2022/04/16 06:45:44;;;;;;;1.75;1.42;;;;;;;;;;6204882;23;20035;-55
2022/04/16 06:48:10;;;;;;;2.90;1.70;;;;;;;;;;6204781;23;20009;-55
2022/04/16 06:50:37;;;;;;;2.50;1.70;;;;;;;;;;6205399;23;20498;-55
2022/04/16 06:53:03;;;;;;;2.47;1.80;;;;;;;;;;6204864;23;20438;-54
2022/04/16 06:55:29;;;;;;;1.23;1.13;;;;;;;;;;6204398;23;20016;-56
2022/04/16 06:57:55;;;;;;;1.95;1.65;;;;;;;;;;6208078;23;20012;-54
2022/04/16 07:00:21;;;;;;;2.72;1.35;;;;;;;;;;6206106;23;20846;-54
2022/04/16 07:02:48;;;;;;;1.73;1.50;;;;;;;;;;6208526;23;19996;-54
2022/04/16 07:05:14;;;;;;;2.03;1.50;;;;;;;;;;6207362;23;20049;-55
2022/04/16 07:07:40;;;;;;;1.77;1.67;;;;;;;;;;6208277;23;20004;-56
2022/04/16 07:10:07;;;;;;;1.77;1.60;;;;;;;;;;6208130;23;20056;-55
2022/04/16 07:12:33;;;;;;;2.55;1.70;;;;;;;;;;6207141;23;20000;-56
2022/04/16 07:14:59;;;;;;;2.42;1.80;;;;;;;;;;6180275;23;20004;-54
2022/04/16 07:17:27;;;;;;;2.45;1.65;;;;;;;;;;6207463;23;20004;-56
2022/04/16 07:19:54;;;;;;;2.85;1.75;;;;;;;;;;6207668;23;20001;-56
2022/04/16 07:22:21;;;;;;;3.28;1.70;;;;;;;;;;6208311;23;20025;-56
2022/04/16 07:24:49;;;;;;;2.38;1.70;;;;;;;;;;6207556;23;20035;-56
2022/04/16 07:27:15;;;;;;;1.98;1.60;;;;;;;;;;6207084;23;20060;-55
2022/04/16 07:29:41;;;;;;;1.98;1.77;;;;;;;;;;6207481;23;20071;-55
2022/04/16 07:32:08;;;;;;;2.40;1.67;;;;;;;;;;6207379;23;20520;-55
2022/04/16 07:34:34;;;;;;;1.42;1.30;;;;;;;;;;6208049;23;20051;-56
2022/04/16 07:37:00;;;;;;;2.67;1.50;;;;;;;;;;6208966;23;20506;-54
2022/04/16 07:39:26;;;;;;;1.55;1.45;;;;;;;;;;6208395;23;20385;-56
2022/04/16 07:41:52;;;;;;;1.73;1.50;;;;;;;;;;6207830;23;20351;-56
2022/04/16 07:44:19;;;;;;;1.40;1.17;;;;;;;;;;6207508;23;20533;-54
2022/04/16 07:46:45;;;;;;;2.13;1.27;;;;;;;;;;6208264;23;20004;-56
2022/04/16 07:49:11;;;;;;;2.60;1.20;;;;;;;;;;6208177;23;20011;-56
2022/04/16 07:51:37;;;;;;;1.58;1.20;;;;;;;;;;6208091;23;20000;-56
2022/04/16 07:54:03;;;;;;;1.20;1.10;;;;;;;;;;6206987;23;20429;-56
2022/04/16 07:56:29;;;;;;;1.40;1.30;;;;;;;;;;6207855;23;20397;-56
2022/04/16 07:58:56;;;;;;;1.40;1.10;;;;;;;;;;6207094;23;20012;-55
2022/04/16 08:01:22;;;;;;;1.08;0.93;;;;;;;;;;6206996;23;20094;-57
2022/04/16 08:03:48;;;;;;;0.90;0.80;;;;;;;;;;6207011;23;20001;-57
2022/04/16 08:06:14;;;;;;;1.10;1.00;;;;;;;;;;6206153;23;20863;-56
2022/04/16 08:08:42;;;;;;;1.65;1.20;;;;;;;;;;6207089;23;20354;-57
2022/04/16 08:11:08;;;;;;;1.08;0.95;;;;;;;;;;6206968;23;20005;-56
2022/04/16 08:13:34;;;;;;;1.25;1.15;;;;;;;;;;6206377;23;20032;-56
2022/04/16 08:16:00;;;;;;;1.30;1.00;;;;;;;;;;6207066;23;20159;-55
2022/04/16 08:18:26;;;;;;;1.05;1.00;;;;;;;;;;6205925;23;20474;-55
2022/04/16 08:20:52;;;;;;;1.25;1.00;;;;;;;;;;6205956;23;20011;-56
2022/04/16 08:23:18;;;;;;;1.40;1.30;;;;;;;;;;6207243;23;20452;-55
2022/04/16 08:25:44;;;;;;;1.10;1.00;;;;;;;;;;6208207;23;20001;-56
2022/04/16 08:28:10;;;;;;;1.20;1.10;;;;;;;;;;6207857;23;20731;-56
2022/04/16 08:30:36;;;;;;;1.33;1.10;;;;;;;;;;6207974;23;20100;-56
2022/04/16 08:33:02;;;;;;;1.33;1.17;;;;;;;;;;6208298;23;20067;-56
2022/04/16 08:35:29;;;;;;;0.93;0.93;;;;;;;;;;6209722;23;20015;-56
2022/04/16 08:37:55;;;;;;;1.08;0.90;;;;;;;;;;6208483;23;20012;-55
2022/04/16 08:40:21;;;;;;;1.50;1.40;;;;;;;;;;6208772;23;20054;-56
2022/04/16 08:42:51;;;;;;;1.17;1.08;;;;;;;;;;6207917;23;20048;-54
2022/04/16 08:45:17;;;;;;;1.35;1.25;;;;;;;;;;6206639;23;20001;-56
2022/04/16 08:47:45;;;;;;;1.33;1.00;;;;;;;;;;6207407;23;20047;-55
2022/04/16 08:50:12;;;;;;;1.73;1.00;;;;;;;;;;6179288;23;20009;-56
2022/04/16 08:52:39;;;;;;;1.30;1.20;;;;;;;;;;6205603;23;20066;-56
2022/04/16 08:55:06;;;;;;;1.65;1.10;;;;;;;;;;6207100;23;20001;-57
2022/04/16 08:57:32;;;;;;;1.15;1.05;;;;;;;;;;6205877;23;20099;-55
2022/04/16 08:59:58;;;;;;;0.90;0.90;;;;;;;;;;6207400;23;20050;-55
2022/04/16 09:02:26;;;;;;;0.70;0.70;;;;;;;;;;6207375;23;20445;-56
2022/04/16 09:05:06;;;;;;;1.10;0.93;;;;;;;;;;6206883;23;20477;-55
2022/04/16 09:07:43;;;;;;;0.88;0.85;;;;;;;;;;6206965;23;20349;-55
2022/04/16 09:10:10;;;;;;;2.22;0.90;;;;;;;;;;6206814;23;20407;-55
2022/04/16 09:12:40;;;;;;;2.13;1.10;;;;;;;;;;6207025;23;20006;-56
2022/04/16 09:15:08;;;;;;;2.47;1.30;;;;;;;;;;6206737;23;20000;-56
2022/04/16 09:17:35;;;;;;;1.20;0.95;;;;;;;;;;6206698;23;20001;-56
2022/04/16 09:20:01;;;;;;;1.00;0.90;;;;;;;;;;6206165;23;20009;-55
2022/04/16 09:22:31;;;;;;;1.13;0.88;;;;;;;;;;6180608;23;20008;-56
2022/04/16 09:24:58;;;;;;;1.40;0.90;;;;;;;;;;6207277;23;20009;-56
2022/04/16 09:27:24;;;;;;;0.80;0.80;;;;;;;;;;6205805;23;20011;-56
2022/04/16 09:29:51;;;;;;;3.05;1.00;;;;;;;;;;6206944;23;20044;-56
2022/04/16 09:32:26;;;;;;;1.17;1.00;;;;;;;;;;6206528;23;20070;-54
2022/04/16 09:34:53;;;;;;;1.55;1.27;;;;;;;;;;6205638;23;20004;-55
2022/04/16 09:37:19;;;;;;;2.83;1.60;;;;;;;;;;6206674;23;20009;-55
2022/04/16 09:39:46;;;;;;;2.33;1.45;;;;;;;;;;6207512;23;20356;-55
2022/04/16 09:42:12;;;;;;;1.40;1.30;;;;;;;;;;6206302;23;20366;-55
2022/04/16 09:44:38;;;;;;;2.13;1.42;;;;;;;;;;6207240;23;20422;-55
2022/04/16 09:47:04;;;;;;;2.15;1.58;;;;;;;;;;6207188;23;20017;-56
2022/04/16 09:49:33;;;;;;;2.38;1.40;;;;;;;;;;6206699;23;20012;-56
2022/04/16 09:52:02;;;;;;;1.67;1.20;;;;;;;;;;6206303;23;20012;-55
2022/04/16 09:54:28;;;;;;;2.08;1.40;;;;;;;;;;6206559;23;20008;-54
2022/04/16 09:57:01;;;;;;;1.48;1.20;;;;;;;;;;6205465;23;20000;-55
2022/04/16 09:59:27;;;;;;;1.30;1.20;;;;;;;;;;6206576;23;20335;-55
2022/04/16 10:01:54;;;;;;;1.08;1.08;;;;;;;;;;6206090;23;20004;-53
2022/04/16 10:04:21;;;;;;;1.42;0.90;;;;;;;;;;6206196;23;20016;-54
2022/04/16 10:06:49;;;;;;;1.05;0.98;;;;;;;;;;6206047;23;20484;-52
2022/04/16 10:09:22;;;;;;;1.65;0.98;;;;;;;;;;6207231;23;20005;-54
2022/04/16 10:14:45;;;;;;;1.00;0.90;;;;;;;;;;6206564;23;20019;-54
2022/04/16 10:17:24;;;;;;;1.20;1.00;;;;;;;;;;6206547;23;20058;-54
2022/04/16 10:19:50;;;;;;;0.82;0.82;;;;;;;;;;6206320;23;20001;-53
2022/04/16 10:22:26;;;;;;;0.70;0.70;;;;;;;;;;6205340;23;20001;-52
2022/04/16 10:24:58;;;;;;;1.52;0.90;;;;;;;;;;6205511;23;20031;-52
2022/04/16 10:27:28;;;;;;;1.02;0.68;;;;;;;;;;6205799;23;20131;-53
2022/04/16 10:29:59;;;;;;;1.17;1.08;;;;;;;;;;6206463;23;20012;-52
2022/04/16 10:32:27;;;;;;;0.93;0.88;;;;;;;;;;6209974;23;20326;-54
2022/04/16 10:35:04;;;;;;;0.80;0.80;;;;;;;;;;6208533;23;20095;-51
2022/04/16 10:37:37;;;;;;;1.00;0.90;;;;;;;;;;6209310;23;20062;-54
2022/04/16 10:40:13;;;;;;;1.20;1.10;;;;;;;;;;6207138;23;20015;-52
2022/04/16 10:42:46;;;;;;;2.75;1.40;;;;;;;;;;6209467;23;19996;-52
2022/04/16 10:45:12;;;;;;;1.40;1.27;;;;;;;;;;6209068;23;20051;-53
2022/04/16 10:47:39;;;;;;;1.67;1.02;;;;;;;;;;6209290;23;20001;-53
2022/04/16 10:50:09;;;;;;;0.70;0.70;;;;;;;;;;6206190;23;20614;-53
2022/04/16 10:52:35;;;;;;;0.80;0.80;;;;;;;;;;6210157;23;20008;-53
2022/04/16 10:55:02;;;;;;;1.58;1.48;;;;;;;;;;6207666;23;20001;-53
2022/04/16 10:57:28;;;;;;;2.03;1.50;;;;;;;;;;6209453;23;20016;-53
2022/04/16 11:00:00;;;;;;;1.52;1.27;;;;;;;;;;6209406;23;20062;-53
2022/04/16 11:02:30;;;;;;;1.80;0.98;;;;;;;;;;6209228;23;20454;-53
2022/04/16 11:04:59;;;;;;;0.93;0.90;;;;;;;;;;6208689;23;20091;-53
2022/04/16 11:07:27;;;;;;;1.52;1.02;;;;;;;;;;6208951;23;20007;-52
2022/04/16 11:09:53;;;;;;;1.10;1.00;;;;;;;;;;6207973;23;20458;-52
2022/04/16 11:12:22;;;;;;;1.02;0.90;;;;;;;;;;6207969;23;20036;-53
2022/04/16 11:14:51;;;;;;;0.95;0.70;;;;;;;;;;6208049;23;20005;-52
2022/04/16 11:17:19;;;;;;;1.02;0.95;;;;;;;;;;6207214;23;20012;-53
2022/04/16 11:19:45;;;;;;;1.25;0.90;;;;;;;;;;6207955;23;20000;-53
2022/04/16 11:22:11;;;;;;;1.10;1.00;;;;;;;;;;6207184;23;20101;-50
2022/04/16 11:24:39;;;;;;;1.77;1.05;;;;;;;;;;6208596;23;20008;-52
2022/04/16 11:35:25;;;;;;;0.88;0.70;;;;;;;;;;6207576;23;20027;-53
2022/04/16 11:37:55;;;;;;;1.00;0.80;;;;;;;;;;6207695;23;20009;-53
2022/04/16 11:40:21;;;;;;;0.80;0.70;;;;;;;;;;6180625;23;20004;-50
2022/04/16 11:42:47;;;;;;;2.28;0.70;;;;;;;;;;6207000;23;20000;-54
2022/04/16 11:45:16;;;;;;;1.25;1.15;;;;;;;;;;6207560;23;20000;-53
2022/04/16 11:47:42;;;;;;;1.17;1.10;;;;;;;;;;6208000;23;20102;-54
2022/04/16 11:50:10;;;;;;;1.67;1.35;;;;;;;;;;6207463;23;20024;-53
2022/04/16 11:52:39;;;;;;;2.25;1.83;;;;;;;;;;6181721;23;20000;-53
2022/04/16 11:55:10;;;;;;;2.22;1.80;;;;;;;;;;6206190;23;20610;-54
2022/04/16 11:57:36;;;;;;;1.73;1.50;;;;;;;;;;6207763;23;20153;-52
2022/04/16 12:00:10;;;;;;;2.13;1.35;;;;;;;;;;6207147;23;20019;-53
2022/04/16 12:02:36;;;;;;;;;;;;;;;;;;6208939;23;20007;-55
2022/04/16 12:05:18;;;;;;;1.63;0.90;;;;;;;;;;6207168;23;19916;-54
2022/04/16 12:07:48;;;;;;;1.60;1.17;;;;;;;;;;6207806;23;20079;-56
2022/04/16 12:10:14;;;;;;;1.20;1.10;;;;;;;;;;6207503;23;20004;-55
2022/04/16 12:12:42;;;;;;;1.38;1.00;;;;;;;;;;6207943;23;20371;-54
2022/04/16 12:15:08;;;;;;;1.17;1.08;;;;;;;;;;6207632;23;20005;-55
2022/04/16 12:17:38;;;;;;;0.82;0.82;;;;;;;;;;6207863;23;20008;-56
2022/04/16 12:20:05;;;;;;;1.55;1.08;;;;;;;;;;6206912;23;20013;-54
2022/04/16 12:22:47;;;;;;;1.00;0.90;;;;;;;;;;6181496;23;20631;-55
2022/04/16 12:25:14;;;;;;;1.20;1.10;;;;;;;;;;6207583;23;20008;-55
2022/04/16 12:27:48;;;;;;;1.25;0.90;;;;;;;;;;6207757;23;20011;-55
2022/04/16 12:30:15;;;;;;;0.98;0.88;;;;;;;;;;6207682;23;20012;-55
2022/04/16 12:32:41;;;;;;;0.70;0.70;;;;;;;;;;6207981;23;20024;-55
2022/04/16 12:35:08;;;;;;;1.58;1.25;;;;;;;;;;6207113;23;20008;-54
2022/04/16 12:37:34;;;;;;;1.67;1.17;;;;;;;;;;6207023;23;20005;-55
2022/04/16 12:40:00;;;;;;;0.70;0.70;;;;;;;;;;6207255;23;20365;-56
2022/04/16 12:42:26;;;;;;;1.15;1.05;;;;;;;;;;6208430;23;20075;-55
2022/04/16 12:44:52;;;;;;;1.10;1.00;;;;;;;;;;6206830;23;20489;-55
2022/04/16 12:47:18;;;;;;;1.52;1.13;;;;;;;;;;6206901;23;20035;-56
2022/04/16 12:49:44;;;;;;;1.42;1.08;;;;;;;;;;6207450;23;20335;-55
2022/04/16 12:52:10;;;;;;;1.20;0.90;;;;;;;;;;6207147;23;20389;-54
2022/04/16 12:54:36;;;;;;;0.73;0.60;;;;;;;;;;6206424;23;20000;-55
2022/04/16 12:57:02;;;;;;;0.73;0.73;;;;;;;;;;6206846;23;20005;-55
2022/04/16 12:59:29;;;;;;;0.90;0.90;;;;;;;;;;6207967;23;20090;-55
2022/04/16 13:01:55;;;;;;;0.80;0.80;;;;;;;;;;6208522;23;20349;-53
2022/04/16 13:04:21;;;;;;;1.15;0.70;;;;;;;;;;6206535;23;20028;-55
2022/04/16 13:06:47;;;;;;;1.10;0.80;;;;;;;;;;6207382;23;19997;-54
2022/04/16 13:09:13;;;;;;;1.45;1.05;;;;;;;;;;6207133;23;20009;-55
2022/04/16 13:11:40;;;;;;;1.00;0.90;;;;;;;;;;6207171;23;20079;-52
2022/04/16 13:14:06;;;;;;;0.63;0.60;;;;;;;;;;6206242;23;20008;-54
2022/04/16 13:16:32;;;;;;;1.75;0.90;;;;;;;;;;6206443;23;20082;-55
2022/04/16 13:18:59;;;;;;;0.80;0.80;;;;;;;;;;6207262;23;20009;-55
2022/04/16 13:21:25;;;;;;;1.30;0.80;;;;;;;;;;6207805;23;20723;-54
2022/04/16 13:23:53;;;;;;;0.60;0.60;;;;;;;;;;6207195;23;19997;-53
2022/04/16 13:26:19;;;;;;;2.45;0.88;;;;;;;;;;6207073;23;20005;-54
2022/04/16 13:28:45;;;;;;;1.40;1.10;;;;;;;;;;6207240;23;20087;-53
2022/04/16 13:31:12;;;;;;;2.22;0.90;;;;;;;;;;6206763;23;20440;-53
2022/04/16 13:33:38;;;;;;;1.08;0.80;;;;;;;;;;6206705;23;20196;-53
2022/04/16 13:36:04;;;;;;;0.80;0.80;;;;;;;;;;6206364;23;20341;-53
2022/04/16 13:38:30;;;;;;;1.08;1.02;;;;;;;;;;6206539;23;20028;-55
2022/04/16 13:43:43;;;;;;;1.10;0.93;;;;;;;;;;6206972;23;20019;-54
2022/04/16 13:46:09;;;;;;;1.23;1.00;;;;;;;;;;6206541;23;20055;-56
2022/04/16 13:48:35;;;;;;;2.20;1.13;;;;;;;;;;6207290;23;20012;-54
2022/04/16 13:51:02;;;;;;;1.17;0.80;;;;;;;;;;6206064;23;20009;-54
2022/04/16 13:53:28;;;;;;;0.85;0.60;;;;;;;;;;6206394;23;20131;-57
2022/04/16 13:55:54;;;;;;;1.17;0.82;;;;;;;;;;6206109;23;20418;-54
2022/04/16 13:58:20;;;;;;;1.25;1.13;;;;;;;;;;6204765;23;20083;-56
2022/04/16 14:00:46;;;;;;;0.90;0.68;;;;;;;;;;6206676;23;19997;-56
2022/04/16 14:03:12;;;;;;;3.58;1.00;;;;;;;;;;6206616;23;20011;-56
2022/04/16 14:05:44;;;;;;;1.52;1.00;;;;;;;;;;6179267;23;20401;-56
2022/04/16 14:08:10;;;;;;;1.20;0.90;;;;;;;;;;6205900;23;20009;-52
2022/04/16 14:10:36;;;;;;;0.70;0.70;;;;;;;;;;6205726;23;20075;-54
2022/04/16 14:13:02;;;;;;;0.82;0.70;;;;;;;;;;6206482;23;20001;-54
2022/04/16 14:15:28;;;;;;;1.48;0.90;;;;;;;;;;6207107;23;20005;-53
2022/04/16 14:17:55;;;;;;;1.10;0.90;;;;;;;;;;6206664;23;20662;-53
2022/04/16 14:20:21;;;;;;;0.95;0.88;;;;;;;;;;6206757;23;20454;-53
2022/04/16 14:22:47;;;;;;;6.10;1.08;;;;;;;;;;6207007;23;20377;-53
2022/04/16 14:25:14;;;;;;;0.98;0.80;;;;;;;;;;6205846;23;20004;-52
2022/04/16 14:27:41;;;;;;;0.90;0.80;;;;;;;;;;6206605;23;20009;-50
2022/04/16 14:30:07;;;;;;;1.08;0.98;;;;;;;;;;6205321;23;20011;-52
2022/04/16 14:32:33;;;;;;;0.80;0.80;;;;;;;;;;6206129;23;20671;-52
2022/04/16 14:34:59;;;;;;;0.80;0.70;;;;;;;;;;6206428;23;20107;-53
2022/04/16 14:37:26;;;;;;;0.82;0.60;;;;;;;;;;6207713;23;20461;-51
2022/04/16 14:39:52;;;;;;;1.05;0.82;;;;;;;;;;6205995;23;20005;-52
2022/04/16 14:42:18;;;;;;;0.75;0.70;;;;;;;;;;6201235;23;20000;-53
2022/04/16 14:44:51;;;;;;;1.35;0.60;;;;;;;;;;6201910;23;20004;-53
2022/04/16 14:47:17;;;;;;;1.02;0.68;;;;;;;;;;6207294;23;19997;-52
2022/04/16 14:49:43;;;;;;;0.65;0.65;;;;;;;;;;6205565;23;20493;-53
2022/04/16 14:52:11;;;;;;;0.50;0.50;;;;;;;;;;6207360;23;20110;-54
2022/04/16 14:54:37;;;;;;;0.73;0.60;;;;;;;;;;6206232;23;20075;-55
2022/04/16 14:57:03;;;;;;;3.55;0.88;;;;;;;;;;6207480;23;20063;-55
2022/04/16 14:59:29;;;;;;;0.70;0.50;;;;;;;;;;6207625;23;20653;-55
2022/04/16 15:01:55;;;;;;;0.73;0.70;;;;;;;;;;6207505;23;20438;-54
2022/04/16 15:04:22;;;;;;;0.35;0.35;;;;;;;;;;6205729;23;20005;-52
2022/04/16 15:06:48;;;;;;;0.47;0.47;;;;;;;;;;6206915;23;20008;-54